Time;durP1;ratioP1;P1;durP2;ratioP2;P2;SDS_P1;SDS_P2;PMS_P1;PMS_P2;Temp;Humidity;BMP_temperature;BMP_pressure;BME280_temperature;BME280_humidity;BME280_pressure;Samples;Min_cycle;Max_cycle;Signal;HPM_P1;HPM_P2
2022/11/11 00:02:09;;;;;;;18.83;8.75;;;9.30;99.90;;;;;;6225820;23;20023;-79
2022/11/11 00:04:54;;;;;;;15.77;9.05;;;9.30;99.90;;;;;;6228989;23;20474;-80
2022/11/11 00:07:39;;;;;;;18.85;8.98;;;9.20;99.90;;;;;;6235641;23;20023;-78
2022/11/11 00:10:27;;;;;;;21.25;9.35;;;9.20;99.90;;;;;;6231011;23;20083;-80
2022/11/11 00:13:11;;;;;;;18.75;9.60;;;9.10;99.90;;;;;;6221898;23;20046;-80
2022/11/11 00:16:02;;;;;;;21.42;9.45;;;9.00;99.90;;;;;;6222679;23;20072;-80
2022/11/11 00:27:38;;;;;;;23.33;11.07;;;8.90;99.90;;;;;;6221662;23;20110;-80
2022/11/11 00:30:23;;;;;;;18.95;11.25;;;8.80;99.90;;;;;;6225372;23;20095;-80
2022/11/11 00:33:07;;;;;;;23.65;11.82;;;8.80;99.90;;;;;;6228248;23;20036;-79
2022/11/11 00:35:53;;;;;;;25.08;10.90;;;8.80;99.90;;;;;;6223852;23;20024;-81
2022/11/11 00:38:51;;;;;;;;;;;8.70;99.90;;;;;;6231364;23;20095;-78
2022/11/11 00:41:35;;;;;;;29.33;13.00;;;8.70;99.90;;;;;;6209303;23;20357;-79
2022/11/11 00:44:20;;;;;;;21.83;12.15;;;8.60;99.90;;;;;;6234491;23;20016;-79
2022/11/11 00:53:31;;;;;;;27.10;13.82;;;8.60;99.90;;;;;;6219559;23;20023;-79
2022/11/11 00:56:16;;;;;;;30.13;13.18;;;8.50;99.90;;;;;;6197767;23;20529;-80
2022/11/11 00:59:00;;;;;;;31.87;14.30;;;8.60;99.90;;;;;;6219628;23;20576;-78
2022/11/11 01:01:45;;;;;;;34.28;14.60;;;8.60;99.90;;;;;;6219481;23;20650;-80
2022/11/11 01:04:29;;;;;;;33.35;15.13;;;8.60;99.90;;;;;;6220062;23;20015;-80
2022/11/11 01:07:14;;;;;;;28.08;14.30;;;8.60;99.90;;;;;;6226648;23;20019;-78
2022/11/11 01:10:00;;;;;;;30.23;14.55;;;8.60;99.90;;;;;;6227320;23;20088;-79
2022/11/11 01:12:44;;;;;;;34.00;13.70;;;8.60;99.90;;;;;;6221277;23;20035;-80
2022/11/11 01:15:32;;;;;;;22.80;12.48;;;8.70;99.90;;;;;;6222922;23;20466;-80
2022/11/11 01:18:21;;;;;;;26.30;13.48;;;8.70;99.90;;;;;;6220554;23;20027;-79
2022/11/11 01:21:10;;;;;;;23.48;12.48;;;8.70;99.90;;;;;;6199868;23;20039;-80
2022/11/11 01:23:54;;;;;;;26.85;14.95;;;8.60;99.90;;;;;;6202737;23;20024;-78
2022/11/11 01:26:39;;;;;;;26.13;12.80;;;8.60;99.90;;;;;;6219248;23;20016;-79
2022/11/11 01:29:24;;;;;;;28.00;14.48;;;8.60;99.90;;;;;;6217668;23;20151;-80
2022/11/11 01:32:08;;;;;;;29.67;15.02;;;8.50;99.90;;;;;;6219645;23;20067;-80
2022/11/11 01:34:53;;;;;;;27.40;14.93;;;8.50;99.90;;;;;;6240728;22;20149;-81
2022/11/11 01:37:38;;;;;;;33.45;15.05;;;8.50;99.90;;;;;;6272862;22;20055;-84
2022/11/11 01:40:22;;;;;;;32.47;17.65;;;8.50;99.90;;;;;;6272657;23;20103;-82
2022/11/11 01:43:07;;;;;;;35.25;17.70;;;8.40;99.90;;;;;;6272612;23;20027;-83
2022/11/11 01:45:57;;;;;;;31.80;17.63;;;8.50;99.90;;;;;;6273221;22;20527;-82
2022/11/11 01:52:11;;;;;;;36.58;18.08;;;8.40;99.90;;;;;;6272334;23;20010;-83
2022/11/11 01:55:04;;;;;;;33.70;17.88;;;8.40;99.90;;;;;;6272669;23;20050;-81
2022/11/11 01:57:56;;;;;;;32.85;17.45;;;8.40;99.90;;;;;;6272538;22;20030;-82
2022/11/11 02:00:41;;;;;;;33.38;18.05;;;8.30;99.90;;;;;;6273425;22;20019;-81
2022/11/11 02:03:29;;;;;;;35.40;19.45;;;8.40;99.90;;;;;;6273823;22;20027;-82
2022/11/11 02:06:14;;;;;;;32.72;18.67;;;8.30;99.90;;;;;;6273962;22;20078;-82
2022/11/11 02:08:59;;;;;;;37.05;19.33;;;8.30;99.90;;;;;;6273759;22;20015;-81
2022/11/11 02:14:52;;;;;;;32.10;16.73;;;8.20;99.90;;;;;;6273772;22;20015;-81
2022/11/11 02:17:36;;;;;;;30.90;16.90;;;8.20;99.90;;;;;;6273104;22;20108;-81
2022/11/11 02:20:24;;;;;;;41.83;18.35;;;8.10;99.90;;;;;;6273874;22;20007;-83
2022/11/11 02:23:26;;;;;;;38.58;19.05;;;8.10;99.90;;;;;;6273380;22;20019;-81
2022/11/11 02:26:14;;;;;;;37.92;18.75;;;8.00;99.90;;;;;;6273394;22;20022;-81
2022/11/11 02:29:00;;;;;;;35.92;18.50;;;8.00;99.90;;;;;;6272154;22;20011;-82
2022/11/11 02:31:44;;;;;;;38.72;18.85;;;8.00;99.90;;;;;;6273042;22;20039;-84
2022/11/11 02:34:33;;;;;;;42.30;19.42;;;7.90;99.90;;;;;;6273544;22;20015;-80
2022/11/11 02:37:21;;;;;;;38.33;19.83;;;7.90;99.90;;;;;;6274852;22;20003;-81
2022/11/11 02:40:07;;;;;;;36.83;18.50;;;7.90;99.90;;;;;;6274186;22;20012;-84
2022/11/11 02:42:52;;;;;;;39.47;20.33;;;7.90;99.90;;;;;;6274248;22;20059;-80
2022/11/11 02:45:36;;;;;;;38.30;18.88;;;7.90;99.90;;;;;;6274246;22;20011;-81
2022/11/11 02:48:21;;;;;;;37.72;21.58;;;7.80;99.90;;;;;;6273491;22;20015;-81
2022/11/11 02:51:07;;;;;;;41.15;20.48;;;7.80;99.90;;;;;;6273134;22;20022;-81
2022/11/11 02:53:57;;;;;;;39.53;21.58;;;7.80;99.90;;;;;;6273613;22;20031;-81
2022/11/11 02:59:45;;;;;;;38.83;20.63;;;7.70;99.90;;;;;;6272273;22;20027;-83
2022/11/11 03:02:29;;;;;;;36.67;20.52;;;7.70;99.90;;;;;;6271964;23;20027;-82
2022/11/11 03:05:14;;;;;;;40.85;20.98;;;7.70;99.90;;;;;;6272995;22;20014;-83
2022/11/11 03:07:59;;;;;;;42.53;21.60;;;7.70;99.90;;;;;;6273021;22;20055;-82
2022/11/11 03:10:43;;;;;;;39.03;21.38;;;7.60;99.90;;;;;;6272667;22;20027;-81
2022/11/11 03:13:28;;;;;;;41.88;21.98;;;7.60;99.90;;;;;;6273526;22;20019;-81
2022/11/11 03:17:38;;;;;;;41.97;21.88;;;7.60;99.90;;;;;;6273502;22;20011;-84
2022/11/11 03:19:17;;;;;;;42.50;23.13;;;7.60;99.90;;;;;;6273599;22;20051;-87
2022/11/11 03:22:02;;;;;;;42.67;21.92;;;7.60;99.90;;;;;;6274259;22;20004;-85
2022/11/11 03:27:50;;;;;;;39.95;21.65;;;7.60;99.90;;;;;;6274085;22;20016;-87
2022/11/11 03:30:35;;;;;;;43.78;22.98;;;7.50;99.90;;;;;;6252347;22;20011;-86
2022/11/11 03:33:20;;;;;;;44.13;23.70;;;7.50;99.90;;;;;;6252447;22;20163;-86
2022/11/11 03:36:05;;;;;;;43.90;23.42;;;7.50;99.90;;;;;;6276341;22;20015;-88
2022/11/11 03:38:49;;;;;;;43.42;23.02;;;7.50;99.90;;;;;;6276167;22;20065;-86
2022/11/11 03:41:34;;;;;;;47.90;24.02;;;7.50;99.90;;;;;;6254205;22;20023;-86
2022/11/11 03:44:19;;;;;;;45.00;22.23;;;7.50;99.90;;;;;;6254106;22;20011;-86
2022/11/11 03:47:04;;;;;;;50.03;23.38;;;7.50;99.90;;;;;;6276168;22;20067;-86
2022/11/11 03:49:48;;;;;;;43.25;24.48;;;7.50;99.90;;;;;;6273063;22;20051;-86
2022/11/11 03:52:33;;;;;;;42.83;23.40;;;7.40;99.90;;;;;;6269018;23;20015;-86
2022/11/11 03:55:18;;;;;;;51.85;22.65;;;7.40;99.90;;;;;;6266932;23;20018;-87
2022/11/11 03:58:02;;;;;;;42.35;23.50;;;7.40;99.90;;;;;;6268266;23;20035;-86
2022/11/11 04:00:47;;;;;;;40.88;22.42;;;7.40;99.90;;;;;;6271321;23;20039;-85
2022/11/11 04:21:52;;;;;;;42.03;23.30;;;7.20;99.90;;;;;;6262800;23;20051;-85
2022/11/11 04:31:02;;;;;;;37.30;21.67;;;7.20;99.90;;;;;;6140758;23;20097;-86
2022/11/11 04:33:47;;;;;;;38.85;22.05;;;7.10;99.90;;;;;;6261022;23;20065;-86
2022/11/11 04:36:32;;;;;;;40.72;22.33;;;7.10;99.90;;;;;;6263819;23;20023;-86
2022/11/11 04:42:20;;;;;;;40.72;22.00;;;7.10;99.90;;;;;;6262995;23;20071;-87
2022/11/11 04:48:11;;;;;;;42.45;22.75;;;7.10;99.90;;;;;;6264146;23;20083;-86
2022/11/11 04:50:56;;;;;;;42.58;23.27;;;7.10;99.90;;;;;;6241502;23;20031;-87
2022/11/11 04:53:42;;;;;;;42.55;23.88;;;7.10;99.90;;;;;;6239473;23;20489;-86
2022/11/11 04:59:30;;;;;;;38.83;22.88;;;7.00;99.90;;;;;;6264088;23;20050;-86
2022/11/11 05:05:18;;;;;;;45.45;24.63;;;6.90;99.90;;;;;;6263139;23;20091;-86
2022/11/11 05:11:05;;;;;;;39.10;22.38;;;6.80;99.90;;;;;;6262763;23;20026;-85
2022/11/11 05:23:04;;;;;;;38.17;20.55;;;6.80;99.90;;;;;;6263379;23;20087;-87
2022/11/11 05:25:48;;;;;;;36.30;20.55;;;6.70;99.90;;;;;;6261985;23;20015;-87
2022/11/11 05:28:33;;;;;;;35.70;20.60;;;6.70;99.90;;;;;;6262687;23;20035;-87
2022/11/11 05:31:18;;;;;;;36.55;20.52;;;6.70;99.90;;;;;;6263238;23;20066;-86
2022/11/11 05:34:02;;;;;;;42.58;22.27;;;6.70;99.90;;;;;;6269442;23;20027;-86
2022/11/11 05:36:47;;;;;;;41.97;20.65;;;6.70;99.90;;;;;;6264391;23;20038;-88
2022/11/11 05:39:32;;;;;;;44.55;20.48;;;6.70;99.90;;;;;;6243653;23;20045;-87
2022/11/11 05:42:17;;;;;;;55.72;21.95;;;6.70;99.90;;;;;;6260223;23;20035;-87
2022/11/11 05:45:02;;;;;;;37.65;20.35;;;6.70;99.90;;;;;;6240436;23;20058;-84
2022/11/11 05:47:46;;;;;;;48.47;20.63;;;6.70;99.90;;;;;;6268827;23;20210;-86
2022/11/11 05:50:31;;;;;;;39.70;21.15;;;6.60;99.90;;;;;;6245354;23;20023;-87
2022/11/11 05:53:22;;;;;;;37.05;21.20;;;6.60;99.90;;;;;;6269833;23;20154;-86
2022/11/11 05:56:07;;;;;;;41.97;23.10;;;6.60;99.90;;;;;;6261748;23;20023;-87
2022/11/11 05:58:52;;;;;;;35.78;20.73;;;6.60;99.90;;;;;;6258398;23;20116;-85
2022/11/11 06:01:37;;;;;;;37.42;21.30;;;6.50;99.90;;;;;;6237362;23;20401;-87
2022/11/11 06:04:22;;;;;;;40.92;19.73;;;6.50;99.90;;;;;;6259868;23;20022;-86
2022/11/11 06:07:07;;;;;;;39.78;21.10;;;6.50;99.90;;;;;;6260341;23;20035;-87
2022/11/11 06:10:29;;;;;;;35.95;20.95;;;6.40;99.90;;;;;;6220870;23;20071;-87
2022/11/11 06:13:04;;;;;;;40.25;21.13;;;6.40;99.90;;;;;;6273912;22;20022;-86
2022/11/11 06:15:50;;;;;;;35.97;19.40;;;6.40;99.90;;;;;;6250365;23;20008;-87
2022/11/11 06:18:34;;;;;;;42.15;20.80;;;6.30;99.90;;;;;;6262976;23;20023;-87
2022/11/11 06:21:19;;;;;;;37.60;21.00;;;6.30;99.90;;;;;;6242048;23;20027;-87
2022/11/11 06:24:04;;;;;;;41.35;21.52;;;6.30;99.90;;;;;;6224891;23;20047;-85
2022/11/11 06:26:50;;;;;;;44.72;21.08;;;6.30;99.90;;;;;;6264533;23;20019;-86
2022/11/11 06:29:37;;;;;;;49.58;21.27;;;6.30;99.90;;;;;;6261384;23;20025;-87
2022/11/11 06:32:21;;;;;;;47.25;22.27;;;6.30;99.90;;;;;;6270762;22;20019;-88
2022/11/11 06:35:06;;;;;;;62.67;21.98;;;6.30;99.90;;;;;;6250614;22;20096;-87
2022/11/11 06:37:51;;;;;;;42.30;20.60;;;6.30;99.90;;;;;;6272040;22;20031;-90
2022/11/11 06:40:35;;;;;;;37.50;19.70;;;6.30;99.90;;;;;;6272353;22;20046;-89
2022/11/11 06:43:23;;;;;;;37.73;18.93;;;6.20;99.90;;;;;;6272270;22;20027;-86
2022/11/11 06:46:24;;;;;;;45.13;18.77;;;6.20;99.90;;;;;;6227953;23;20027;-87
2022/11/11 06:49:09;;;;;;;39.78;18.55;;;6.30;99.90;;;;;;6270652;22;20068;-86
2022/11/11 06:51:53;;;;;;;36.00;18.92;;;6.30;99.90;;;;;;6222230;23;20050;-87
2022/11/11 06:54:38;;;;;;;44.50;18.50;;;6.40;99.90;;;;;;6268982;23;20026;-87
2022/11/11 06:57:23;;;;;;;31.40;16.25;;;6.50;99.90;;;;;;6264900;23;20019;-87
2022/11/11 07:00:09;;;;;;;41.03;17.90;;;6.50;99.90;;;;;;6245853;23;20050;-85
2022/11/11 07:02:56;;;;;;;;;;;6.50;99.90;;;;;;6261944;23;20062;-86
2022/11/11 07:05:42;;;;;;;30.20;15.73;;;6.60;99.90;;;;;;6258931;23;20261;-89
2022/11/11 07:08:26;;;;;;;;;;;6.60;99.90;;;;;;6258223;23;20022;-87
2022/11/11 07:11:11;;;;;;;26.73;15.40;;;6.70;99.90;;;;;;6235002;23;20332;-87
2022/11/11 07:13:55;;;;;;;31.05;15.25;;;6.90;99.90;;;;;;6266967;23;20045;-86
2022/11/11 07:16:40;;;;;;;33.95;13.77;;;6.90;99.90;;;;;;6244822;23;20023;-86
2022/11/11 07:19:25;;;;;;;26.45;12.10;;;7.00;99.90;;;;;;6239334;23;20022;-87
2022/11/11 07:22:11;;;;;;;23.60;12.43;;;7.00;99.90;;;;;;6243439;23;20055;-86
2022/11/11 07:24:55;;;;;;;17.95;11.43;;;7.10;99.90;;;;;;6268925;23;20035;-86
2022/11/11 07:27:41;;;;;;;20.52;11.63;;;7.30;99.90;;;;;;6238835;23;20038;-87
2022/11/11 07:30:26;;;;;;;18.17;11.40;;;7.40;99.90;;;;;;6269957;22;20069;-85
2022/11/11 07:33:10;;;;;;;;;;;7.40;99.90;;;;;;6250554;22;20010;-85
2022/11/11 07:35:55;;;;;;;17.45;11.30;;;7.40;99.90;;;;;;6256326;22;19922;-78
2022/11/11 07:38:41;;;;;;;20.45;12.05;;;7.50;99.90;;;;;;6256660;23;20065;-79
2022/11/11 07:41:25;;;;;;;22.10;12.45;;;7.50;99.90;;;;;;6233410;23;20069;-78
2022/11/11 07:44:09;;;;;;;21.38;11.65;;;7.60;99.90;;;;;;6258704;23;20073;-78
2022/11/11 07:46:54;;;;;;;18.88;12.02;;;7.70;99.90;;;;;;6235918;23;20016;-78
2022/11/11 07:49:39;;;;;;;18.25;11.30;;;7.90;99.90;;;;;;6252607;23;20019;-76
2022/11/11 07:52:23;;;;;;;20.50;11.45;;;8.10;99.90;;;;;;6254736;23;20023;-78
2022/11/11 07:55:08;;;;;;;17.98;11.55;;;8.20;99.90;;;;;;6232896;23;20512;-78
2022/11/11 07:57:52;;;;;;;25.17;12.70;;;8.50;99.90;;;;;;6253641;23;20521;-79
2022/11/11 08:00:37;;;;;;;23.00;11.88;;;8.60;99.90;;;;;;6252810;23;20087;-80
2022/11/11 08:03:21;;;;;;;24.23;12.27;;;8.70;99.90;;;;;;6253264;23;20018;-78
2022/11/11 08:06:06;;;;;;;18.17;11.48;;;8.70;99.90;;;;;;6228376;23;20019;-79
2022/11/11 08:08:50;;;;;;;22.52;12.68;;;8.70;99.90;;;;;;6250253;23;20065;-78
2022/11/11 08:14:38;;;;;;;19.70;11.75;;;8.90;99.90;;;;;;6232489;23;20019;-78
2022/11/11 08:17:23;;;;;;;18.15;11.27;;;9.10;99.90;;;;;;6248629;23;20019;-78
2022/11/11 08:20:09;;;;;;;23.15;13.10;;;9.20;99.90;;;;;;6248189;23;20018;-79
2022/11/11 08:22:55;;;;;;;26.40;13.10;;;9.30;99.90;;;;;;6248834;23;20019;-78
2022/11/11 08:25:40;;;;;;;19.33;12.02;;;9.60;99.90;;;;;;6226927;23;20019;-78
2022/11/11 08:28:26;;;;;;;22.50;12.57;;;9.90;99.90;;;;;;6250483;23;20015;-79
2022/11/11 08:31:10;;;;;;;22.00;13.52;;;10.20;99.90;;;;;;6226593;23;20070;-78
2022/11/11 08:33:55;;;;;;;20.23;12.07;;;10.30;99.90;;;;;;6251637;23;20022;-79
2022/11/11 08:36:39;;;;;;;29.33;13.77;;;10.60;99.90;;;;;;6253207;23;20031;-79
2022/11/11 08:39:23;;;;;;;22.67;12.93;;;10.60;99.90;;;;;;6252017;23;20038;-78
2022/11/11 08:42:08;;;;;;;24.67;12.05;;;10.30;99.90;;;;;;6252885;23;20073;-78
2022/11/11 08:44:52;;;;;;;22.13;12.75;;;10.40;99.90;;;;;;6256800;23;20115;-78
2022/11/11 08:47:37;;;;;;;25.02;13.75;;;10.40;99.90;;;;;;6254941;23;20076;-78
2022/11/11 08:50:22;;;;;;;;;;;10.20;99.90;;;;;;6260186;23;20070;-79
2022/11/11 08:53:07;;;;;;;20.52;12.98;;;10.10;99.90;;;;;;6260578;23;19909;-78
2022/11/11 08:55:52;;;;;;;21.83;12.65;;;10.10;99.90;;;;;;6254242;23;20023;-78
2022/11/11 08:58:37;;;;;;;15.73;10.98;;;10.50;99.90;;;;;;6259258;23;20022;-78
2022/11/11 09:01:21;;;;;;;19.48;11.05;;;11.50;99.90;;;;;;6261072;23;20034;-80
2022/11/11 09:04:05;;;;;;;16.80;10.07;;;12.50;99.90;;;;;;6256601;23;20038;-83
2022/11/11 09:06:50;;;;;;;16.88;10.90;;;13.50;99.90;;;;;;6254142;23;20077;-79
2022/11/11 09:09:34;;;;;;;15.82;9.68;;;14.70;99.90;;;;;;6253015;23;20125;-81
2022/11/11 09:12:19;;;;;;;15.53;9.80;;;15.60;99.90;;;;;;6256142;23;20092;-79
2022/11/11 09:15:07;;;;;;;13.15;8.48;;;16.60;99.90;;;;;;6258945;23;20023;-80
2022/11/11 09:17:52;;;;;;;15.85;10.38;;;17.50;99.90;;;;;;6264110;23;20051;-81
2022/11/11 09:20:37;;;;;;;21.70;9.38;;;17.70;99.90;;;;;;6264088;23;20031;-81
2022/11/11 09:23:22;;;;;;;27.52;14.88;;;17.80;99.90;;;;;;6244093;23;20099;-80
2022/11/11 09:26:06;;;;;;;15.18;9.68;;;17.90;99.90;;;;;;6264594;23;20030;-80
2022/11/11 09:28:50;;;;;;;15.30;9.57;;;18.50;99.90;;;;;;6262682;23;20038;-80
2022/11/11 09:31:35;;;;;;;15.40;9.43;;;18.40;99.90;;;;;;6265363;23;20339;-78
2022/11/11 09:34:20;;;;;;;18.35;9.73;;;18.60;99.90;;;;;;6264081;23;20020;-81
2022/11/11 09:37:05;;;;;;;17.83;10.05;;;18.50;99.90;;;;;;6263857;23;20023;-81
2022/11/11 09:39:49;;;;;;;15.07;9.80;;;19.10;99.90;;;;;;6261145;23;20023;-81
2022/11/11 09:42:41;;;;;;;15.90;9.48;;;19.60;99.90;;;;;;6263210;23;20016;-80
2022/11/11 09:45:46;;;;;;;15.27;9.30;;;20.10;99.40;;;;;;6262112;23;20019;-79
2022/11/11 09:48:45;;;;;;;16.45;9.65;;;20.00;98.90;;;;;;6259022;23;20115;-80
2022/11/11 09:51:39;;;;;;;24.65;9.82;;;19.70;99.40;;;;;;6261762;23;20030;-79
2022/11/11 09:54:57;;;;;;;15.65;10.07;;;19.80;99.20;;;;;;6261790;23;20156;-81
2022/11/11 09:57:52;;;;;;;19.25;10.52;;;19.30;99.30;;;;;;6229362;23;20023;-80
2022/11/11 10:00:40;;;;;;;15.10;9.35;;;19.60;99.20;;;;;;6236448;23;20084;-79
2022/11/11 10:03:29;;;;;;;17.65;10.60;;;19.10;99.70;;;;;;6259160;23;20026;-79
2022/11/11 10:06:25;;;;;;;16.83;9.38;;;18.50;99.90;;;;;;6263969;23;20084;-78
2022/11/11 10:09:45;;;;;;;14.35;10.52;;;18.30;99.90;;;;;;6262948;23;20038;-77
2022/11/11 10:12:38;;;;;;;22.77;11.07;;;17.80;99.90;;;;;;6259609;23;20018;-78
2022/11/11 10:15:33;;;;;;;17.80;10.80;;;17.60;99.90;;;;;;6261000;23;20477;-77
2022/11/11 10:18:49;;;;;;;20.35;10.52;;;17.60;99.90;;;;;;6261849;23;20043;-78
2022/11/11 10:21:50;;;;;;;15.43;10.70;;;17.30;99.90;;;;;;6262317;23;20065;-77
2022/11/11 10:24:39;;;;;;;18.05;10.48;;;17.00;99.90;;;;;;6240191;23;20139;-77
2022/11/11 10:27:24;;;;;;;19.95;11.13;;;16.50;99.90;;;;;;6265189;23;20621;-79
2022/11/11 10:30:22;;;;;;;24.58;11.73;;;16.50;99.90;;;;;;6264785;23;20197;-81
2022/11/11 10:33:18;;;;;;;18.15;11.27;;;16.40;99.90;;;;;;6266619;23;20043;-79
2022/11/11 10:36:05;;;;;;;17.98;10.52;;;16.90;99.90;;;;;;6262914;22;20030;-77
2022/11/11 10:38:49;;;;;;;20.65;10.48;;;17.70;99.90;;;;;;6254138;23;20354;-82
2022/11/11 10:41:47;;;;;;;22.58;11.43;;;18.70;99.90;;;;;;6256504;23;20027;-77
2022/11/11 10:44:36;;;;;;;23.08;10.45;;;19.70;99.90;;;;;;6257914;23;20015;-79
2022/11/11 10:47:49;;;;;;;22.42;10.43;;;20.90;98.90;;;;;;6258351;23;20015;-80
2022/11/11 10:50:46;;;;;;;17.90;10.65;;;22.20;96.60;;;;;;6266157;23;20091;-80
2022/11/11 10:53:34;;;;;;;15.27;9.25;;;23.30;94.50;;;;;;6268242;23;20026;-79
2022/11/11 10:56:29;;;;;;;15.25;8.85;;;24.10;93.10;;;;;;6255665;23;20101;-79
2022/11/11 10:59:25;;;;;;;18.92;10.57;;;24.70;91.30;;;;;;6229293;23;20048;-79
2022/11/11 11:02:20;;;;;;;25.73;10.90;;;24.50;90.60;;;;;;6264157;23;20043;-79
2022/11/11 11:05:18;;;;;;;;;;;24.80;90.20;;;;;;6232643;23;20425;-79
2022/11/11 11:08:11;;;;;;;19.25;9.45;;;24.80;89.60;;;;;;6253514;23;20170;-80
2022/11/11 11:11:14;;;;;;;15.35;9.82;;;26.10;87.30;;;;;;6257517;23;20038;-79
2022/11/11 11:14:02;;;;;;;21.00;10.18;;;26.50;84.20;;;;;;6256652;23;20095;-80
2022/11/11 11:16:54;;;;;;;18.88;10.77;;;26.80;83.90;;;;;;6256584;23;20015;-79
2022/11/11 11:19:39;;;;;;;20.55;10.50;;;27.20;80.90;;;;;;6250594;23;20067;-80
2022/11/11 11:22:44;;;;;;;18.42;10.32;;;27.40;80.10;;;;;;6232212;23;20023;-78
2022/11/11 11:25:32;;;;;;;20.20;11.20;;;27.20;78.40;;;;;;6233477;23;20023;-80
2022/11/11 11:28:17;;;;;;;21.88;11.75;;;26.50;79.40;;;;;;6248410;23;20501;-79
2022/11/11 11:31:04;;;;;;;20.20;10.67;;;26.10;79.50;;;;;;6249182;23;20073;-81
2022/11/11 11:33:54;;;;;;;23.85;11.70;;;25.70;79.90;;;;;;6249242;23;20023;-80
2022/11/11 11:36:38;;;;;;;19.35;11.20;;;25.70;80.40;;;;;;6249395;23;20104;-78
2022/11/11 11:39:36;;;;;;;25.17;12.37;;;25.90;79.50;;;;;;6247713;23;20031;-79
2022/11/11 11:42:28;;;;;;;23.05;12.70;;;25.90;79.40;;;;;;6250002;23;20459;-81
2022/11/11 11:45:21;;;;;;;24.98;12.43;;;25.60;80.20;;;;;;6230035;23;20023;-80
2022/11/11 11:48:30;;;;;;;29.80;15.32;;;25.10;80.40;;;;;;6229067;23;20401;-81
2022/11/11 11:51:40;;;;;;;21.67;13.30;;;23.80;82.60;;;;;;6251982;23;20070;-80
2022/11/11 11:54:40;;;;;;;24.02;12.82;;;22.70;85.20;;;;;;6256482;23;20015;-80
2022/11/11 11:57:45;;;;;;;24.92;14.00;;;21.90;87.30;;;;;;6266410;23;20064;-79
2022/11/11 12:01:14;;;;;;;26.52;14.35;;;20.60;90.60;;;;;;6264531;23;20073;-77
2022/11/11 12:04:26;;;;;;;33.47;14.95;;;19.70;92.30;;;;;;6202760;23;20043;-82
2022/11/11 12:07:14;;;;;;;30.65;15.80;;;19.00;93.70;;;;;;6254063;23;20023;-79
2022/11/11 12:10:26;;;;;;;35.13;15.10;;;18.50;95.10;;;;;;6255456;23;20047;-80
2022/11/11 12:13:18;;;;;;;31.50;15.15;;;18.20;96.50;;;;;;6257077;23;20092;-81
2022/11/11 12:16:26;;;;;;;35.70;16.15;;;18.00;97.30;;;;;;6261502;23;20050;-78
2022/11/11 12:19:29;;;;;;;26.40;14.52;;;17.70;98.30;;;;;;6262240;23;20046;-78
2022/11/11 12:22:13;;;;;;;29.40;15.55;;;17.30;99.70;;;;;;6248588;23;20027;-78
2022/11/11 12:25:34;;;;;;;31.60;15.27;;;17.10;99.90;;;;;;6249052;23;20065;-81
2022/11/11 12:28:25;;;;;;;34.05;15.63;;;16.80;99.90;;;;;;6270412;23;20023;-81
2022/11/11 12:31:12;;;;;;;25.75;14.88;;;16.70;99.90;;;;;;6262949;23;20030;-80
2022/11/11 12:34:05;;;;;;;26.10;14.50;;;16.40;99.90;;;;;;6261823;23;20019;-81
2022/11/11 12:37:11;;;;;;;26.55;13.20;;;16.30;99.90;;;;;;6239384;23;20092;-82
2022/11/11 12:40:15;;;;;;;26.30;15.20;;;16.20;99.90;;;;;;6262576;23;20018;-80
2022/11/11 12:43:17;;;;;;;31.10;14.82;;;16.00;99.90;;;;;;6263297;23;20059;-80
2022/11/11 12:46:12;;;;;;;32.30;15.70;;;15.80;99.90;;;;;;6261394;23;20067;-81
2022/11/11 12:49:05;;;;;;;34.90;15.32;;;15.70;99.90;;;;;;6255716;23;20030;-78
2022/11/11 12:51:56;;;;;;;30.23;15.73;;;15.60;99.90;;;;;;6259782;23;20038;-79
2022/11/11 12:55:08;;;;;;;35.70;15.70;;;15.50;99.90;;;;;;6273519;22;20047;-79
2022/11/11 12:58:14;;;;;;;24.52;14.00;;;15.50;99.90;;;;;;6257854;22;20038;-80
2022/11/11 13:01:27;;;;;;;30.27;14.93;;;15.40;99.90;;;;;;6253778;23;20023;-80
2022/11/11 13:04:33;;;;;;;37.67;14.60;;;15.40;99.90;;;;;;6253395;23;20460;-80
2022/11/11 13:07:33;;;;;;;28.85;14.95;;;15.30;99.90;;;;;;6254807;23;20067;-82
2022/11/11 13:10:42;;;;;;;31.13;15.82;;;15.30;99.90;;;;;;6255981;23;20043;-80
2022/11/11 13:14:01;;;;;;;28.45;15.27;;;15.10;99.90;;;;;;6257719;23;20039;-81
2022/11/11 13:16:45;;;;;;;26.02;15.38;;;14.80;99.90;;;;;;6238336;23;20069;-81
2022/11/11 13:19:37;;;;;;;30.90;16.17;;;14.90;99.90;;;;;;6255378;23;20043;-79
2022/11/11 13:22:25;;;;;;;29.40;15.40;;;14.80;99.90;;;;;;6252882;23;20621;-81
2022/11/11 13:25:17;;;;;;;31.77;17.10;;;14.70;99.90;;;;;;6253423;23;20020;-80
2022/11/11 13:28:19;;;;;;;31.98;17.52;;;14.60;99.90;;;;;;6251937;23;20568;-81
2022/11/11 13:31:27;;;;;;;36.35;18.70;;;14.50;99.90;;;;;;6262489;23;20019;-81
2022/11/11 13:34:14;;;;;;;34.50;18.27;;;14.40;99.90;;;;;;6260247;22;20024;-81
2022/11/11 13:37:02;;;;;;;33.70;17.33;;;14.30;99.90;;;;;;6253640;23;20023;-83
2022/11/11 13:39:50;;;;;;;30.20;17.83;;;14.30;99.90;;;;;;6253854;23;20023;-82
2022/11/11 13:42:48;;;;;;;32.65;18.25;;;14.20;99.90;;;;;;6253752;23;20020;-82
2022/11/11 13:45:40;;;;;;;36.63;18.25;;;14.20;99.90;;;;;;6254539;23;20023;-83
2022/11/11 13:48:26;;;;;;;32.75;18.30;;;14.10;99.90;;;;;;6253104;23;20109;-81
2022/11/11 13:51:23;;;;;;;38.03;18.45;;;14.10;99.90;;;;;;6255260;23;20108;-84
2022/11/11 13:54:27;;;;;;;35.83;17.95;;;14.00;99.90;;;;;;6259160;23;20023;-82
2022/11/11 13:57:17;;;;;;;33.78;19.92;;;14.00;99.90;;;;;;6256974;23;20119;-82
2022/11/11 14:00:16;;;;;;;39.85;19.00;;;13.90;99.90;;;;;;6255739;23;20110;-84
2022/11/11 14:03:19;;;;;;;37.30;18.20;;;13.90;99.90;;;;;;6258426;23;20018;-84
2022/11/11 14:06:16;;;;;;;33.47;18.10;;;13.90;99.90;;;;;;6267415;23;20022;-80
2022/11/11 14:09:01;;;;;;;37.20;18.08;;;14.00;99.90;;;;;;6262592;23;20019;-82
2022/11/11 14:11:45;;;;;;;31.38;17.38;;;13.90;99.90;;;;;;6233284;23;20027;-80
2022/11/11 14:14:33;;;;;;;29.48;17.13;;;14.00;99.90;;;;;;6255624;23;20095;-79
2022/11/11 14:17:18;;;;;;;38.10;19.73;;;14.00;99.90;;;;;;6257001;23;20039;-80
2022/11/11 14:20:35;;;;;;;28.70;16.60;;;14.00;99.90;;;;;;6255785;23;20535;-79
2022/11/11 14:23:19;;;;;;;35.53;17.30;;;14.00;99.90;;;;;;6257298;23;20066;-82
2022/11/11 14:26:10;;;;;;;27.95;15.45;;;13.90;99.90;;;;;;6257517;23;20085;-81
2022/11/11 14:28:57;;;;;;;35.72;15.55;;;13.90;99.90;;;;;;6257412;23;20019;-81
2022/11/11 14:31:48;;;;;;;26.52;16.17;;;13.90;99.90;;;;;;6257775;23;20015;-82
2022/11/11 14:34:55;;;;;;;32.22;15.95;;;13.90;99.90;;;;;;6256923;22;20094;-82
2022/11/11 14:37:55;;;;;;;30.17;16.90;;;13.80;99.90;;;;;;6256280;23;20064;-82
2022/11/11 14:40:39;;;;;;;30.92;16.02;;;13.70;99.90;;;;;;6256393;23;20019;-80
2022/11/11 14:43:39;;;;;;;29.13;15.75;;;13.70;99.90;;;;;;6256969;23;20070;-82
2022/11/11 14:46:24;;;;;;;34.55;16.05;;;13.70;99.90;;;;;;6264234;23;20023;-81
2022/11/11 14:49:08;;;;;;;40.92;17.60;;;13.60;99.90;;;;;;6261272;23;20115;-81
2022/11/11 14:51:57;;;;;;;35.92;17.05;;;13.50;99.90;;;;;;6259381;23;20556;-80
2022/11/11 14:54:50;;;;;;;35.05;16.92;;;13.50;99.90;;;;;;6263080;23;20019;-81
2022/11/11 14:57:38;;;;;;;39.63;17.27;;;13.40;99.90;;;;;;6263515;23;20172;-79
2022/11/11 15:00:29;;;;;;;39.95;16.30;;;13.30;99.90;;;;;;6262204;23;20062;-80
2022/11/11 15:03:52;;;;;;;29.42;15.98;;;13.30;99.90;;;;;;6262846;23;20370;-80
2022/11/11 15:06:58;;;;;;;29.95;15.13;;;13.20;99.90;;;;;;6266312;23;20072;-80
2022/11/11 15:10:10;;;;;;;29.13;14.23;;;13.10;99.90;;;;;;6261666;23;20043;-79
2022/11/11 15:13:21;;;;;;;35.75;16.25;;;13.00;99.90;;;;;;6264901;23;20047;-82
2022/11/11 15:16:31;;;;;;;36.67;16.25;;;12.90;99.90;;;;;;6261969;23;20027;-80
2022/11/11 15:19:18;;;;;;;39.85;17.50;;;12.80;99.90;;;;;;6261308;23;20038;-79
2022/11/11 15:22:22;;;;;;;33.85;16.83;;;12.70;99.90;;;;;;6262649;23;20023;-81
2022/11/11 15:25:28;;;;;;;40.40;16.52;;;12.60;99.90;;;;;;6261239;23;20039;-81
2022/11/11 15:28:18;;;;;;;33.03;15.02;;;12.40;99.90;;;;;;6259181;23;20019;-80
2022/11/11 15:31:29;;;;;;;31.80;15.35;;;12.40;99.90;;;;;;6239950;23;20031;-80
2022/11/11 15:34:43;;;;;;;34.72;15.77;;;12.30;99.90;;;;;;6269757;22;20063;-81
2022/11/11 15:37:29;;;;;;;33.97;16.67;;;12.20;99.90;;;;;;6268732;23;20023;-81
2022/11/11 15:40:21;;;;;;;32.05;16.65;;;12.00;99.90;;;;;;6273023;22;20027;-80
2022/11/11 15:43:10;;;;;;;39.20;16.70;;;12.00;99.90;;;;;;6263802;23;20027;-82
2022/11/11 15:46:03;;;;;;;31.58;16.05;;;11.90;99.90;;;;;;6264126;23;20062;-81
2022/11/11 15:48:50;;;;;;;34.20;16.88;;;11.80;99.90;;;;;;6270507;23;20047;-81
2022/11/11 15:51:35;;;;;;;39.85;17.48;;;11.70;99.90;;;;;;6270670;23;20007;-81
2022/11/11 15:54:21;;;;;;;39.78;19.13;;;11.70;99.90;;;;;;6270017;23;20087;-80